createdAt,value
2023-11-12T00:02:44.458Z,99339.03
2023-11-12T00:05:46.988Z,99336.56
2023-11-12T00:08:49.848Z,99346.19
2023-11-12T00:11:52.767Z,99345.78
2023-11-12T00:14:55.487Z,99358.44
2023-11-12T00:17:58.156Z,99352.50
2023-11-12T00:21:00.691Z,99355.56
2023-11-12T00:24:04.230Z,99374.59
2023-11-12T00:27:06.759Z,99369.91
2023-11-12T00:30:10.452Z,99366.00
2023-11-12T00:33:13.126Z,99361.50
2023-11-12T00:36:15.769Z,99372.56
2023-11-12T00:39:18.378Z,99380.16
2023-11-12T00:42:20.908Z,99375.84
2023-11-12T00:45:23.992Z,99373.38
2023-11-12T00:48:27.681Z,99378.09
2023-11-12T00:51:30.457Z,99379.94
2023-11-12T00:54:33.845Z,99372.56
2023-11-12T00:57:36.372Z,99379.13
2023-11-12T01:00:42.624Z,99393.19
2023-11-12T01:03:45.670Z,99397.31
2023-11-12T01:06:48.209Z,99396.88
2023-11-12T01:09:51.485Z,99396.69
2023-11-12T01:12:54.023Z,99392.38
2023-11-12T01:15:57.352Z,99391.34
2023-11-12T01:19:00.306Z,99387.06
2023-11-12T01:22:03.000Z,99379.72
2023-11-12T01:25:06.266Z,99391.56
2023-11-12T01:28:08.846Z,99391.56
2023-11-12T01:31:12.136Z,99384.78
2023-11-12T01:34:15.570Z,99402.56
2023-11-12T01:37:18.522Z,99381.34
2023-11-12T01:40:21.668Z,99394.81
2023-11-12T01:43:24.181Z,99400.53
2023-11-12T01:46:30.926Z,99391.53
2023-11-12T01:49:36.393Z,99398.06
2023-11-12T01:52:40.251Z,99397.41
2023-11-12T01:55:45.484Z,99402.94
2023-11-12T01:58:53.653Z,99403.31
2023-11-12T02:01:56.200Z,99409.88
2023-11-12T02:04:59.436Z,99408.41
2023-11-12T02:08:04.571Z,99398.22
2023-11-12T02:11:10.317Z,99406.94
2023-11-12T02:14:13.146Z,99411.06
2023-11-12T02:17:15.713Z,99420.63
2023-11-12T02:20:18.384Z,99413.50
2023-11-12T02:23:21.156Z,99413.41
2023-11-12T02:26:23.687Z,99416.47
2023-11-12T02:29:26.315Z,99407.72
2023-11-12T02:32:33.868Z,99409.34
2023-11-12T02:35:38.202Z,99416.66
2023-11-12T02:38:41.860Z,99410.53
2023-11-12T02:41:46.037Z,99414.19
2023-11-12T02:44:49.674Z,99417.66
2023-11-12T02:47:52.268Z,99418.84
2023-11-12T02:50:55.671Z,99426.78
2023-11-12T02:53:58.230Z,99443.13
2023-11-12T02:57:00.770Z,99439.00
2023-11-12T03:00:03.573Z,99449.69
2023-11-12T03:03:06.201Z,99448.56
2023-11-12T03:06:08.899Z,99443.72
2023-11-12T03:09:11.467Z,99445.28
2023-11-12T03:12:14.071Z,99450.16
2023-11-12T03:15:18.067Z,99454.47
2023-11-12T03:18:20.801Z,99456.63
2023-11-12T03:21:24.180Z,99460.88
2023-11-12T03:24:26.732Z,99461.53
2023-11-12T03:27:31.149Z,99464.19
2023-11-12T03:30:33.660Z,99468.00
2023-11-12T03:33:36.518Z,99479.69
2023-11-12T03:36:39.211Z,99475.38
2023-11-12T03:39:42.022Z,99479.53
2023-11-12T03:42:45.054Z,99479.31
2023-11-12T03:45:47.733Z,99484.41
2023-11-12T03:48:50.224Z,99484.22
2023-11-12T03:51:53.401Z,99484.38
2023-11-12T03:54:55.964Z,99487.88
2023-11-12T03:57:58.570Z,99484.88
2023-11-12T04:01:01.297Z,99494.50
2023-11-12T04:04:04.294Z,99492.88
2023-11-12T04:07:06.945Z,99495.94
2023-11-12T04:10:12.720Z,99494.84
2023-11-12T04:13:15.373Z,99495.44
2023-11-12T04:16:17.989Z,99492.56
2023-11-12T04:19:20.585Z,99492.19
2023-11-12T04:22:24.536Z,99484.38
2023-11-12T04:25:27.076Z,99494.13
2023-11-12T04:28:30.238Z,99508.41
2023-11-12T04:31:33.104Z,99499.19
2023-11-12T04:34:35.670Z,99514.69
2023-11-12T04:37:39.332Z,99502.44
2023-11-12T04:40:41.835Z,99518.09
2023-11-12T04:43:45.055Z,99512.56
2023-11-12T04:46:49.217Z,99509.25
2023-11-12T04:49:53.213Z,99519.03
2023-11-12T04:52:55.682Z,99519.94
2023-11-12T04:55:58.200Z,99532.22
2023-11-12T04:59:00.844Z,99527.31
2023-11-12T05:02:03.987Z,99525.28
2023-11-12T05:05:08.224Z,99530.78
2023-11-12T05:08:10.721Z,99526.06
2023-11-12T05:11:13.250Z,99521.94
2023-11-12T05:14:15.746Z,99524.84
2023-11-12T05:17:18.261Z,99524.84
2023-11-12T05:20:20.843Z,99533.63
2023-11-12T05:23:23.321Z,99531.59
2023-11-12T05:26:25.889Z,99537.66
2023-11-12T05:29:28.359Z,99531.84
2023-11-12T05:32:30.961Z,99545.28
2023-11-12T05:35:33.508Z,99538.94
2023-11-12T05:38:35.995Z,99545.94
2023-11-12T05:41:38.469Z,99544.47
2023-11-12T05:44:41.032Z,99549.91
2023-11-12T05:47:43.553Z,99547.84
2023-11-12T05:50:46.501Z,99553.28
2023-11-12T05:53:49.266Z,99557.53
2023-11-12T05:56:51.783Z,99571.06
2023-11-12T05:59:54.353Z,99558.25
2023-11-12T06:02:57.310Z,99573.50
2023-11-12T06:05:59.874Z,99575.78
2023-11-12T06:09:02.433Z,99585.88
2023-11-12T06:12:06.748Z,99581.81
2023-11-12T06:15:10.983Z,99573.19
2023-11-12T06:18:13.889Z,99586.84
2023-11-12T06:21:16.697Z,99592.72
2023-11-12T06:24:19.324Z,99585.75
2023-11-12T06:27:22.002Z,99600.22
2023-11-12T06:30:24.578Z,99593.97
2023-11-12T06:33:27.298Z,99612.91
2023-11-12T06:36:29.919Z,99608.28
2023-11-12T06:39:32.547Z,99611.13
2023-11-12T06:42:35.241Z,99611.19
2023-11-12T06:45:37.862Z,99619.97
2023-11-12T06:48:41.053Z,99622.50
2023-11-12T06:51:43.808Z,99630.50
2023-11-12T06:54:46.411Z,99625.00
2023-11-12T06:57:48.985Z,99633.59
2023-11-12T07:00:52.207Z,99631.19
2023-11-12T07:03:55.108Z,99639.03
2023-11-12T07:07:06.419Z,99640.56
2023-11-12T07:10:16.375Z,99654.66
2023-11-12T07:13:18.834Z,99634.66
2023-11-12T07:16:21.791Z,99643.47
2023-11-12T07:19:25.930Z,99646.50
2023-11-12T07:22:29.453Z,99660.69
2023-11-12T07:25:31.988Z,99657.44
2023-11-12T07:28:34.557Z,99646.06
2023-11-12T07:31:37.131Z,99656.72
2023-11-12T07:34:39.678Z,99648.81
2023-11-12T07:37:42.406Z,99665.97
2023-11-12T07:40:44.965Z,99649.47
2023-11-12T07:43:47.435Z,99657.88
2023-11-12T07:46:50.924Z,99659.50
2023-11-12T07:49:54.070Z,99661.19
2023-11-12T07:52:56.630Z,99661.38
2023-11-12T07:55:59.108Z,99663.03
2023-11-12T07:59:01.627Z,99674.69
2023-11-12T08:02:04.267Z,99680.44
2023-11-12T08:05:09.506Z,99687.00
2023-11-12T08:08:12.172Z,99701.16
2023-11-12T08:11:14.788Z,99703.81
2023-11-12T08:14:17.285Z,99701.75
2023-11-12T08:17:19.877Z,99698.72
2023-11-12T08:20:22.344Z,99700.13
2023-11-12T08:23:24.820Z,99709.97
2023-11-12T08:26:30.827Z,99719.03
2023-11-12T08:29:33.635Z,99724.94
2023-11-12T08:32:36.695Z,99719.00
2023-11-12T08:35:40.328Z,99729.66
2023-11-12T08:38:42.893Z,99729.09
2023-11-12T08:41:48.359Z,99732.25
2023-11-12T08:44:51.242Z,99727.31
2023-11-12T08:47:53.754Z,99735.97
2023-11-12T08:50:56.312Z,99730.19
2023-11-12T08:53:58.957Z,99736.16
2023-11-12T08:57:04.391Z,99741.91
2023-11-12T09:00:08.525Z,99747.00
2023-11-12T09:03:11.216Z,99738.22
2023-11-12T09:06:13.772Z,99741.34
2023-11-12T09:09:18.791Z,99741.75
2023-11-12T09:12:21.395Z,99751.59
2023-11-12T09:15:23.914Z,99740.38
2023-11-12T09:18:28.704Z,99743.66
2023-11-12T09:21:32.276Z,99738.75
2023-11-12T09:24:34.805Z,99738.34
2023-11-12T09:27:37.404Z,99747.97
2023-11-12T09:30:49.239Z,99748.22
2023-11-12T09:33:59.893Z,99738.00
2023-11-12T09:37:03.563Z,99749.88
2023-11-12T09:40:11.754Z,99746.78
2023-11-12T09:43:15.452Z,99758.69
2023-11-12T09:46:20.674Z,99754.59
2023-11-12T09:49:23.828Z,99748.69
2023-11-12T09:52:26.845Z,99744.19
2023-11-12T09:55:29.326Z,99737.00
2023-11-12T09:58:31.812Z,99749.50
2023-11-12T10:01:35.619Z,99750.34
2023-11-12T10:04:43.315Z,99735.84
2023-11-12T10:07:47.171Z,99722.75
2023-11-12T10:10:49.764Z,99726.84
2023-11-12T10:13:52.903Z,99730.91
2023-11-12T10:17:08.881Z,99722.50
2023-11-12T10:20:20.531Z,99727.00
2023-11-12T10:23:32.619Z,99732.56
2023-11-12T10:26:36.936Z,99727.84
2023-11-12T10:29:40.788Z,99728.66
2023-11-12T10:32:43.358Z,99729.66
2023-11-12T10:35:47.760Z,99729.25
2023-11-12T10:38:51.078Z,99729.06
2023-11-12T10:41:53.692Z,99737.44
2023-11-12T10:44:58.318Z,99732.72
2023-11-12T10:48:05.427Z,99739.69
2023-11-12T10:51:09.249Z,99734.53
2023-11-12T10:54:15.134Z,99728.34
2023-11-12T10:57:24.744Z,99731.59
2023-11-12T11:00:27.871Z,99731.81
2023-11-12T11:03:32.606Z,99741.28
2023-11-12T11:06:37.278Z,99730.84
2023-11-12T11:09:40.094Z,99737.78
2023-11-12T11:12:44.009Z,99744.16
2023-11-12T11:15:57.180Z,99742.28
2023-11-12T11:19:00.669Z,99746.59
2023-11-12T11:22:32.886Z,99750.06
2023-11-12T11:25:35.770Z,99752.53
2023-11-12T11:28:38.236Z,99751.88
2023-11-12T11:32:09.833Z,99750.06
2023-11-12T11:35:19.222Z,99753.34
2023-11-12T11:38:25.356Z,99769.56
2023-11-12T11:41:27.854Z,99761.75
2023-11-12T11:44:35.455Z,99769.75
2023-11-12T11:47:38.076Z,99771.16
2023-11-12T11:50:46.827Z,99766.03
2023-11-12T11:53:50.164Z,99762.31
2023-11-12T11:56:53.728Z,99776.47
2023-11-12T11:59:57.639Z,99770.28
2023-11-12T12:03:02.503Z,99764.13
2023-11-12T12:06:24.682Z,99762.84
2023-11-12T12:09:27.956Z,99772.00
2023-11-12T12:12:31.238Z,99769.34
2023-11-12T12:15:34.597Z,99767.69
2023-11-12T12:18:37.422Z,99769.28
2023-11-12T12:21:48.305Z,99771.63
2023-11-12T12:24:54.498Z,99766.91
2023-11-12T12:27:57.106Z,99760.53
2023-11-12T12:30:59.769Z,99775.66
2023-11-12T12:34:10.930Z,99770.44
2023-11-12T12:37:20.756Z,99764.53
2023-11-12T12:40:29.699Z,99771.56
2023-11-12T12:43:51.937Z,99778.94
2023-11-12T12:46:54.491Z,99771.94
2023-11-12T12:49:59.634Z,99776.19
2023-11-12T12:53:16.569Z,99783.03
2023-11-12T12:56:20.308Z,99778.84
2023-11-12T12:59:22.944Z,99770.53
2023-11-12T13:02:25.616Z,99775.47
2023-11-12T13:05:28.139Z,99787.56
2023-11-12T13:08:30.695Z,99784.25
2023-11-12T13:11:33.144Z,99785.88
2023-11-12T13:14:35.676Z,99788.66
2023-11-12T13:17:39.369Z,99782.16
2023-11-12T13:20:43.702Z,99789.59
2023-11-12T13:23:46.208Z,99790.44
2023-11-12T13:26:49.296Z,99789.03
2023-11-12T13:29:52.211Z,99788.22
2023-11-12T13:32:55.993Z,99789.75
2023-11-12T13:36:01.276Z,99793.47
2023-11-12T13:39:10.892Z,99805.59
2023-11-12T13:42:13.461Z,99801.06
2023-11-12T13:45:19.310Z,99799.78
2023-11-12T13:48:21.981Z,99795.75
2023-11-12T13:51:25.640Z,99798.34
2023-11-12T13:54:28.244Z,99801.56
2023-11-12T13:57:33.511Z,99807.84
2023-11-12T14:00:37.128Z,99797.63
2023-11-12T14:03:41.943Z,99802.69
2023-11-12T14:06:48.424Z,99810.78
2023-11-12T14:09:51.052Z,99813.03
2023-11-12T14:12:54.447Z,99808.97
2023-11-12T14:15:59.209Z,99813.94
2023-11-12T14:19:01.922Z,99815.06
2023-11-12T14:22:05.604Z,99817.91
2023-11-12T14:25:12.265Z,99819.25
2023-11-12T14:28:14.877Z,99816.28
2023-11-12T14:31:21.594Z,99827.41
2023-11-12T14:34:24.712Z,99823.00
2023-11-12T14:37:27.427Z,99832.84
2023-11-12T14:40:30.036Z,99837.06
2023-11-12T14:43:38.508Z,99835.72
2023-11-12T14:46:41.539Z,99844.47
2023-11-12T14:49:47.256Z,99842.69
2023-11-12T14:52:52.080Z,99833.72
2023-11-12T14:55:55.343Z,99843.31
2023-11-12T14:58:58.336Z,99843.97
2023-11-12T15:02:00.989Z,99841.41
2023-11-12T15:05:07.009Z,99851.00
2023-11-12T15:08:10.686Z,99849.69
2023-11-12T15:11:13.890Z,99855.75
2023-11-12T15:14:16.579Z,99852.75
2023-11-12T15:17:22.013Z,99852.66
2023-11-12T15:20:24.757Z,99857.59
2023-11-12T15:23:29.333Z,99855.44
2023-11-12T15:26:32.995Z,99851.94
2023-11-12T15:29:35.797Z,99859.50
2023-11-12T15:32:38.459Z,99864.09
2023-11-12T15:35:41.093Z,99862.94
2023-11-12T15:38:43.730Z,99865.09
2023-11-12T15:41:46.282Z,99872.03
2023-11-12T15:44:50.654Z,99870.34
2023-11-12T15:47:53.890Z,99875.31
2023-11-12T15:50:56.810Z,99878.44
2023-11-12T15:54:01.285Z,99873.94
2023-11-12T15:57:04.509Z,99875.78
2023-11-12T16:00:09.545Z,99878.06
2023-11-12T16:03:18.610Z,99880.16
2023-11-12T16:06:21.869Z,99877.59
2023-11-12T16:09:24.444Z,99882.13
2023-11-12T16:12:27.829Z,99881.78
2023-11-12T16:15:31.215Z,99890.16
2023-11-12T16:18:33.943Z,99892.69
2023-11-12T16:21:36.773Z,99891.03
2023-11-12T16:24:42.249Z,99891.22
2023-11-12T16:27:45.061Z,99890.97
2023-11-12T16:30:49.287Z,99899.47
2023-11-12T16:33:53.775Z,99891.38
2023-11-12T16:36:56.424Z,99891.44
2023-11-12T16:40:00.777Z,99891.00
2023-11-12T16:43:04.360Z,99897.09
2023-11-12T16:46:07.006Z,99900.84
2023-11-12T16:49:09.904Z,99897.84
2023-11-12T16:52:12.465Z,99899.38
2023-11-12T16:55:15.498Z,99901.59
2023-11-12T16:58:17.995Z,99899.34
2023-11-12T17:01:20.929Z,99907.50
2023-11-12T17:04:25.088Z,99912.16
2023-11-12T17:07:29.251Z,99914.00
2023-11-12T17:10:32.003Z,99919.47
2023-11-12T17:13:35.316Z,99921.13
2023-11-12T17:16:44.059Z,99924.13
2023-11-12T17:19:46.939Z,99922.81
2023-11-12T17:22:50.378Z,99924.81
2023-11-12T17:25:54.078Z,99921.22
2023-11-12T17:29:00.490Z,99927.63
2023-11-12T17:32:03.537Z,99924.00
2023-11-12T17:35:06.599Z,99926.84
2023-11-12T17:38:09.172Z,99930.00
2023-11-12T17:41:11.660Z,99935.94
2023-11-12T17:44:15.706Z,99941.06
2023-11-12T17:47:18.504Z,99938.44
2023-11-12T17:50:21.299Z,99932.00
2023-11-12T17:53:25.312Z,99931.84
2023-11-12T17:56:28.615Z,99943.19
2023-11-12T17:59:31.603Z,99942.56
2023-11-12T18:02:34.400Z,99944.53
2023-11-12T18:05:37.538Z,99953.44
2023-11-12T18:08:40.000Z,99956.75
2023-11-12T18:11:46.257Z,99961.84
2023-11-12T18:14:49.735Z,99957.91
2023-11-12T18:17:52.678Z,99969.91
2023-11-12T18:20:55.720Z,99974.22
2023-11-12T18:23:58.395Z,99974.19
2023-11-12T18:27:01.013Z,99981.94
2023-11-12T18:30:06.724Z,99977.03
2023-11-12T18:33:15.299Z,99977.16
2023-11-12T18:36:18.201Z,99984.78
2023-11-12T18:39:20.737Z,99987.72
2023-11-12T18:42:25.125Z,99979.59
2023-11-12T18:45:30.285Z,99986.00
2023-11-12T18:48:34.229Z,99973.81
2023-11-12T18:51:37.002Z,99979.09
2023-11-12T18:54:39.571Z,99981.75
2023-11-12T18:57:43.612Z,99986.34
2023-11-12T19:00:46.352Z,99993.84
2023-11-12T19:03:49.401Z,99984.94
2023-11-12T19:06:52.027Z,99985.59
2023-11-12T19:09:55.317Z,99996.97
2023-11-12T19:12:58.006Z,99992.19
2023-11-12T19:16:00.966Z,99998.59
2023-11-12T19:19:04.520Z,99987.81
2023-11-12T19:22:07.353Z,100001.34
2023-11-12T19:25:16.198Z,100011.84
2023-11-12T19:28:19.203Z,100024.50
2023-11-12T19:31:30.606Z,100022.91
2023-11-12T19:34:36.429Z,100028.72
2023-11-12T19:37:39.981Z,100033.47
2023-11-12T19:40:44.879Z,100028.03
2023-11-12T19:43:48.618Z,100025.91
2023-11-12T19:46:51.928Z,100028.25
2023-11-12T19:49:54.686Z,100024.03
2023-11-12T19:52:57.909Z,100041.00
2023-11-12T19:56:00.790Z,100041.47
2023-11-12T19:59:03.519Z,100049.63
2023-11-12T20:02:07.648Z,100038.88
2023-11-12T20:05:10.481Z,100044.84
2023-11-12T20:08:13.288Z,100043.69
2023-11-12T20:11:17.506Z,100038.25
2023-11-12T20:14:22.621Z,100044.22
2023-11-12T20:17:25.146Z,100054.22
2023-11-12T20:20:27.686Z,100051.03
2023-11-12T20:23:30.878Z,100054.78
2023-11-12T20:26:34.765Z,100041.25
2023-11-12T20:29:37.448Z,100046.53
2023-11-12T20:32:42.831Z,100050.44
2023-11-12T20:35:48.403Z,100054.75
2023-11-12T20:38:52.427Z,100044.97
2023-11-12T20:41:57.659Z,100052.03
2023-11-12T20:45:01.743Z,100054.69
2023-11-12T20:48:04.953Z,100057.53
2023-11-12T20:51:09.415Z,100055.59
2023-11-12T20:54:17.184Z,100057.31
2023-11-12T20:57:19.908Z,100056.84
2023-11-12T21:00:22.941Z,100062.69
2023-11-12T21:03:26.035Z,100064.72
2023-11-12T21:06:29.629Z,100071.13
2023-11-12T21:09:33.507Z,100067.06
2023-11-12T21:12:36.958Z,100069.00
2023-11-12T21:15:41.689Z,100068.91
2023-11-12T21:18:44.902Z,100069.63
2023-11-12T21:21:50.341Z,100063.56
2023-11-12T21:24:54.053Z,100065.63
2023-11-12T21:27:56.584Z,100057.03
2023-11-12T21:30:59.562Z,100052.88
2023-11-12T21:34:02.321Z,100061.97
2023-11-12T21:37:06.904Z,100055.88
2023-11-12T21:40:09.967Z,100045.97
2023-11-12T21:43:12.812Z,100060.75
2023-11-12T21:46:17.067Z,100059.88
2023-11-12T21:49:19.806Z,100069.63
2023-11-12T21:52:24.198Z,100073.78
2023-11-12T21:55:26.777Z,100073.78
2023-11-12T21:58:29.522Z,100063.56
2023-11-12T22:01:32.075Z,100067.56
2023-11-12T22:04:34.612Z,100063.72
2023-11-12T22:07:37.298Z,100060.78
2023-11-12T22:10:39.896Z,100073.22
2023-11-12T22:13:43.358Z,100076.38
2023-11-12T22:16:46.286Z,100069.84
2023-11-12T22:19:51.506Z,100067.06
2023-11-12T22:22:56.806Z,100057.22
2023-11-12T22:25:59.373Z,100060.03
2023-11-12T22:29:01.992Z,100056.28
2023-11-12T22:32:10.460Z,100060.53
2023-11-12T22:35:13.049Z,100059.19
2023-11-12T22:38:15.647Z,100060.69
2023-11-12T22:41:19.429Z,100059.06
2023-11-12T22:44:22.039Z,100066.81
2023-11-12T22:47:26.248Z,100069.81
2023-11-12T22:50:28.977Z,100059.94
2023-11-12T22:53:31.519Z,100063.25
2023-11-12T22:56:34.022Z,100056.03
2023-11-12T22:59:36.855Z,100051.53
2023-11-12T23:02:39.463Z,100057.44
2023-11-12T23:05:43.393Z,100070.78
2023-11-12T23:08:47.378Z,100062.47
2023-11-12T23:11:49.858Z,100066.41
2023-11-12T23:14:52.691Z,100066.94
2023-11-12T23:17:55.253Z,100058.78
2023-11-12T23:21:03.487Z,100055.84
2023-11-12T23:24:11.818Z,100056.22
2023-11-12T23:27:14.372Z,100068.44
2023-11-12T23:30:17.258Z,100069.63
2023-11-12T23:33:20.750Z,100077.03
2023-11-12T23:36:23.316Z,100076.22
2023-11-12T23:39:25.794Z,100065.00
2023-11-12T23:42:28.598Z,100066.66
2023-11-12T23:45:31.205Z,100061.91
2023-11-12T23:48:35.149Z,100056.09
2023-11-12T23:51:39.745Z,100057.59
2023-11-12T23:54:43.396Z,100058.25
2023-11-12T23:57:47.231Z,100065.66
